createdAt,value
2018-12-09T04:47:07.039Z,15.60
2018-12-09T04:52:50.810Z,15.60
2018-12-09T05:07:53.223Z,15.60
2018-12-09T07:05:09.336Z,15.50
2018-12-09T07:10:45.290Z,15.40
2018-12-09T09:21:30.083Z,17.40
2018-12-09T09:23:59.346Z,17.50
2018-12-09T09:26:28.711Z,17.60
2018-12-09T09:28:58.161Z,17.60
2018-12-09T09:31:27.483Z,17.70
2018-12-09T09:33:56.948Z,17.80
2018-12-09T09:36:26.366Z,17.80
2018-12-09T09:38:55.902Z,17.90
2018-12-09T09:41:25.510Z,17.90
2018-12-09T09:43:55.282Z,17.90
2018-12-09T09:46:24.631Z,17.90
2018-12-09T09:48:53.946Z,17.90
2018-12-09T09:51:23.210Z,17.90
2018-12-09T09:53:52.544Z,17.90
2018-12-09T09:56:22.432Z,18.00
2018-12-09T09:58:51.688Z,18.00
2018-12-09T10:01:21.028Z,17.90
2018-12-09T10:03:50.395Z,18.00
2018-12-09T10:06:20.086Z,18.10
2018-12-09T10:08:49.422Z,18.10
2018-12-09T10:11:18.666Z,18.20
2018-12-09T10:13:59.760Z,18.20
2018-12-09T10:16:29.254Z,18.30
2018-12-09T10:18:58.491Z,18.40
2018-12-09T10:21:27.747Z,18.50
2018-12-09T10:23:57.073Z,18.50
2018-12-09T10:26:26.351Z,18.50
2018-12-09T10:28:55.630Z,18.50
2018-12-09T10:31:24.872Z,18.50
2018-12-09T10:33:54.282Z,18.60
2018-12-09T10:36:23.665Z,18.50
2018-12-09T10:38:52.984Z,18.50
2018-12-09T10:41:22.209Z,18.50
2018-12-09T10:43:51.575Z,18.50
2018-12-09T10:46:21.857Z,18.50
2018-12-09T10:48:51.423Z,18.50
2018-12-09T10:51:20.702Z,18.50
2018-12-09T10:53:49.993Z,18.50
2018-12-09T10:56:19.342Z,18.50
2018-12-09T10:58:48.620Z,18.50
2018-12-09T11:01:22.832Z,18.40
2018-12-09T11:03:52.961Z,18.30
2018-12-09T11:06:22.646Z,18.30
2018-12-09T11:08:51.940Z,18.30
2018-12-09T11:11:21.350Z,18.30
2018-12-09T11:13:57.785Z,18.20
2018-12-09T11:16:22.287Z,18.20
2018-12-09T11:18:51.578Z,18.10
2018-12-09T11:21:21.251Z,18.10
2018-12-09T11:23:50.554Z,18.10
2018-12-09T11:26:19.815Z,18.00
2018-12-09T11:28:49.104Z,18.00
2018-12-09T11:31:24.950Z,18.00
2018-12-09T11:33:55.231Z,17.90
2018-12-09T11:36:24.585Z,17.90
2018-12-09T11:38:53.998Z,17.90
2018-12-09T11:41:23.311Z,17.80
2018-12-09T11:43:52.700Z,17.90
2018-12-09T11:46:21.985Z,17.90
2018-12-09T11:48:51.387Z,17.90
2018-12-09T11:51:20.735Z,17.90
2018-12-09T11:53:50.101Z,17.90
2018-12-09T11:56:19.471Z,17.90
2018-12-09T11:58:48.908Z,17.90
2018-12-09T12:01:18.231Z,18.00
2018-12-09T12:03:47.527Z,17.90
2018-12-09T12:06:16.789Z,18.00
2018-12-09T12:08:46.095Z,18.00
2018-12-09T12:11:15.346Z,18.10
2018-12-09T12:13:44.629Z,18.10
2018-12-09T12:16:14.144Z,18.10
2018-12-09T12:18:43.517Z,18.10
2018-12-09T12:21:12.930Z,18.10
2018-12-09T12:23:42.482Z,18.10
2018-12-09T12:26:12.715Z,18.20
2018-12-09T12:28:42.178Z,18.20
2018-12-09T12:31:11.664Z,18.20
2018-12-09T12:33:41.098Z,18.30
2018-12-09T12:36:12.982Z,18.30
2018-12-09T12:38:42.273Z,18.30
2018-12-09T12:41:11.564Z,18.30
2018-12-09T12:43:40.984Z,18.30
2018-12-09T12:46:10.319Z,18.20
2018-12-09T12:48:39.846Z,18.20
2018-12-09T12:51:09.354Z,18.20
2018-12-09T12:53:38.875Z,18.20
2018-12-09T12:56:08.858Z,18.20
2018-12-09T12:58:38.438Z,18.20
2018-12-09T13:01:07.702Z,18.20
2018-12-09T13:03:36.990Z,18.20
2018-12-09T13:06:06.410Z,18.20
2018-12-09T13:08:36.114Z,18.20
2018-12-09T13:11:05.436Z,18.20
2018-12-09T13:13:34.740Z,18.20
2018-12-09T13:16:04.123Z,18.20
2018-12-09T13:18:33.368Z,18.20
2018-12-09T13:21:02.637Z,18.20
2018-12-09T13:23:31.916Z,18.20
2018-12-09T13:26:01.207Z,18.20
2018-12-09T13:28:30.506Z,18.20
2018-12-09T13:31:00.381Z,18.20
2018-12-09T13:33:29.668Z,18.20
2018-12-09T13:35:58.922Z,18.20
2018-12-09T14:07:19.727Z,18.20
2018-12-09T14:09:49.024Z,18.20
2018-12-09T14:12:18.434Z,18.10
2018-12-09T14:14:47.755Z,18.20
2018-12-09T14:17:17.321Z,18.20
2018-12-09T14:19:46.707Z,18.20
2018-12-09T14:22:15.983Z,18.20
2018-12-09T14:24:46.159Z,18.20
2018-12-09T14:27:15.511Z,18.20
2018-12-09T14:29:44.838Z,18.30
2018-12-09T14:32:14.314Z,18.30
2018-12-09T14:34:44.023Z,18.30
2018-12-09T14:37:13.358Z,18.30
2018-12-09T14:39:42.679Z,18.30
2018-12-09T14:42:11.978Z,18.30
2018-12-09T14:44:41.357Z,18.40
2018-12-09T14:47:10.611Z,18.30
2018-12-09T14:49:39.977Z,18.30
2018-12-09T14:52:09.497Z,18.40
2018-12-09T14:54:38.803Z,18.30
2018-12-09T14:57:08.118Z,18.40
2018-12-09T14:59:37.560Z,18.40
2018-12-09T15:02:06.996Z,18.30
2018-12-09T15:04:36.262Z,18.30
2018-12-09T15:07:05.484Z,18.40
2018-12-09T15:09:34.942Z,18.30
2018-12-09T15:12:04.386Z,18.30
2018-12-09T15:14:33.704Z,18.40
2018-12-09T15:17:03.000Z,18.40
2018-12-09T15:19:32.368Z,18.40
2018-12-09T15:22:01.739Z,18.40
2018-12-09T15:24:31.082Z,18.40
2018-12-09T15:27:00.476Z,18.30
2018-12-09T15:29:29.751Z,18.30
2018-12-09T15:31:58.978Z,18.30
2018-12-09T15:34:28.255Z,18.30
2018-12-09T15:36:57.475Z,18.30
2018-12-09T15:39:26.774Z,18.30
2018-12-09T15:41:56.280Z,18.30
2018-12-09T15:44:25.575Z,18.30
2018-12-09T15:46:54.959Z,18.30
2018-12-09T15:49:24.255Z,18.20
2018-12-09T15:51:53.583Z,18.30
2018-12-09T15:54:23.136Z,18.20
2018-12-09T15:56:52.406Z,18.30
2018-12-09T15:59:21.807Z,18.30
2018-12-09T16:01:51.225Z,18.20
2018-12-09T16:04:20.606Z,18.30
2018-12-09T16:06:49.865Z,18.30
2018-12-09T16:09:19.170Z,18.30
2018-12-09T16:11:48.440Z,18.20
2018-12-09T16:14:17.796Z,18.20
2018-12-09T16:16:47.012Z,18.30
2018-12-09T16:19:16.264Z,18.30
2018-12-09T16:21:45.547Z,18.30
2018-12-09T16:24:14.895Z,18.30
2018-12-09T16:26:45.027Z,18.30
2018-12-09T16:29:14.767Z,18.30
2018-12-09T16:31:44.237Z,18.30
2018-12-09T16:34:13.595Z,18.30
2018-12-09T16:36:42.816Z,18.30
2018-12-09T16:39:12.428Z,18.30
2018-12-09T16:41:41.862Z,18.30
2018-12-09T16:44:11.304Z,18.30
2018-12-09T16:46:40.790Z,18.30
2018-12-09T16:49:10.102Z,18.30
2018-12-09T16:51:39.514Z,18.30
2018-12-09T16:54:08.774Z,18.20
2018-12-09T16:56:38.202Z,18.20
2018-12-09T16:59:07.461Z,18.20
2018-12-09T17:01:36.839Z,18.20
2018-12-09T17:04:06.140Z,18.20
2018-12-09T17:06:35.375Z,18.20
2018-12-09T17:09:06.369Z,18.10
2018-12-09T17:11:35.619Z,18.10
2018-12-09T17:14:04.937Z,18.10
2018-12-09T17:16:35.433Z,18.10
2018-12-09T17:19:04.655Z,18.10
2018-12-09T17:21:34.781Z,18.00
2018-12-09T17:24:04.298Z,18.00
2018-12-09T17:26:33.550Z,18.00
2018-12-09T17:29:05.503Z,18.00
2018-12-09T17:31:34.106Z,17.90
2018-12-09T17:34:03.482Z,17.90
2018-12-09T17:36:32.750Z,17.90
2018-12-09T17:39:02.091Z,17.90
2018-12-09T17:41:31.483Z,17.90
2018-12-09T17:44:00.775Z,17.90
2018-12-09T17:46:30.131Z,17.90
2018-12-09T17:48:59.452Z,18.00
2018-12-09T17:51:31.052Z,17.90
2018-12-09T17:54:01.787Z,18.00
2018-12-09T17:56:31.176Z,18.00
2018-12-09T17:59:00.615Z,18.00
2018-12-09T18:01:29.857Z,17.90
2018-12-09T18:04:00.632Z,17.90
2018-12-09T18:06:30.110Z,17.90
2018-12-09T18:08:59.523Z,17.90
2018-12-09T18:11:28.835Z,17.90
2018-12-09T18:13:59.163Z,17.90
2018-12-09T18:16:28.576Z,17.90
2018-12-09T18:18:58.016Z,17.90
2018-12-09T18:21:27.406Z,17.80
2018-12-09T18:23:56.858Z,17.90
2018-12-09T18:26:26.221Z,17.90
2018-12-09T18:28:55.721Z,17.80
2018-12-09T18:31:28.710Z,17.80
2018-12-09T18:33:58.381Z,17.80
2018-12-09T18:36:28.438Z,17.80
2018-12-09T18:38:59.820Z,17.80
2018-12-09T18:41:29.260Z,17.80
2018-12-09T18:43:58.667Z,17.80
2018-12-09T18:46:28.305Z,17.80
2018-12-09T18:48:57.839Z,17.80
2018-12-09T18:51:27.180Z,17.80
2018-12-09T18:53:56.594Z,17.80
2018-12-09T18:56:26.018Z,17.80
2018-12-09T18:58:55.436Z,17.80
2018-12-09T19:01:24.716Z,17.80
2018-12-09T19:03:54.199Z,17.80
2018-12-09T19:06:23.883Z,17.70
2018-12-09T19:08:53.318Z,17.70
2018-12-09T19:11:23.179Z,17.70
2018-12-09T19:13:52.623Z,17.70
2018-12-09T19:16:22.377Z,17.70
2018-12-09T19:18:51.703Z,17.70
2018-12-09T19:21:21.195Z,17.70
2018-12-09T19:23:50.566Z,17.70
2018-12-09T19:26:19.911Z,17.60
2018-12-09T19:28:49.269Z,17.70
2018-12-09T19:31:18.600Z,17.70
2018-12-09T19:33:47.916Z,17.70
2018-12-09T19:36:17.253Z,17.60
2018-12-09T19:38:46.766Z,17.70
2018-12-09T19:41:17.062Z,17.70
2018-12-09T19:43:46.412Z,17.70
2018-12-09T19:46:15.719Z,17.70
2018-12-09T19:48:45.217Z,17.60
2018-12-09T19:51:14.474Z,17.60
2018-12-09T19:53:43.882Z,17.60
2018-12-09T19:56:13.210Z,17.60
2018-12-09T19:58:42.533Z,17.50
2018-12-09T20:01:11.847Z,17.60
2018-12-09T20:03:41.215Z,17.60
2018-12-09T20:06:10.580Z,17.60
2018-12-09T20:08:40.552Z,17.60
2018-12-09T20:11:10.733Z,17.60
2018-12-09T20:13:40.165Z,17.50
2018-12-09T20:16:11.267Z,17.50
2018-12-09T20:18:40.593Z,17.60
2018-12-09T20:21:10.012Z,17.50
2018-12-09T20:23:39.399Z,17.50
2018-12-09T20:26:08.768Z,17.50
2018-12-09T20:28:38.216Z,17.50
2018-12-09T20:31:07.632Z,17.50
2018-12-09T20:33:37.098Z,17.50
2018-12-09T20:36:06.403Z,17.50
2018-12-09T20:38:35.691Z,17.50
2018-12-09T20:41:05.166Z,17.50
2018-12-09T20:43:35.216Z,17.50
2018-12-09T20:46:04.748Z,17.50
2018-12-09T20:48:34.145Z,17.50
2018-12-09T20:51:03.483Z,17.50
2018-12-09T20:53:32.856Z,17.50
2018-12-09T20:56:02.188Z,17.50
2018-12-09T20:58:31.568Z,17.50
2018-12-09T21:01:00.979Z,17.50
2018-12-09T21:03:30.270Z,17.40
2018-12-09T21:05:59.630Z,17.40
2018-12-09T21:08:28.927Z,17.40
2018-12-09T21:10:58.308Z,17.40
2018-12-09T21:13:27.638Z,17.30
2018-12-09T21:15:57.005Z,17.30
2018-12-09T21:18:26.329Z,17.30
2018-12-09T21:20:55.622Z,17.30
2018-12-09T21:23:25.074Z,17.30
2018-12-09T21:25:54.490Z,17.30
2018-12-09T21:28:23.857Z,17.30
2018-12-09T21:30:53.238Z,17.30
2018-12-09T21:33:22.615Z,17.30
2018-12-09T21:35:51.944Z,17.30
2018-12-09T21:38:21.281Z,17.20
2018-12-09T21:40:50.648Z,17.20
2018-12-09T21:43:19.980Z,17.20
2018-12-09T21:45:49.291Z,17.20
2018-12-09T21:48:18.606Z,17.30
2018-12-09T21:50:48.015Z,17.30
2018-12-09T21:53:17.328Z,17.30
2018-12-09T21:55:46.727Z,17.30
2018-12-09T21:58:15.999Z,17.30
2018-12-09T22:00:45.331Z,17.30
2018-12-09T22:03:14.614Z,17.30
2018-12-09T22:05:43.899Z,17.30
2018-12-09T22:08:13.180Z,17.20
2018-12-09T22:10:42.429Z,17.30
2018-12-09T22:13:11.723Z,17.20
2018-12-09T22:15:41.047Z,17.20
2018-12-09T22:18:10.425Z,17.20
2018-12-09T22:20:39.683Z,17.20
2018-12-09T22:23:08.987Z,17.20
2018-12-09T22:25:38.301Z,17.20
2018-12-09T22:28:07.611Z,17.10
2018-12-09T22:30:36.876Z,17.10
2018-12-09T22:33:06.254Z,17.10
2018-12-09T22:35:35.532Z,17.10
2018-12-09T22:38:04.835Z,17.10
2018-12-09T22:40:34.075Z,17.10
2018-12-09T22:43:03.383Z,17.10
2018-12-09T22:45:33.587Z,17.00
2018-12-09T22:48:02.947Z,17.00
2018-12-09T22:50:32.289Z,17.00
2018-12-09T22:53:01.611Z,17.00
2018-12-09T22:55:30.859Z,17.00
2018-12-09T22:58:00.123Z,17.00
2018-12-09T23:00:29.641Z,17.00
2018-12-09T23:03:04.135Z,17.00
2018-12-09T23:05:33.505Z,17.00
2018-12-09T23:08:02.968Z,17.00
2018-12-09T23:10:32.277Z,17.10
2018-12-09T23:13:01.566Z,17.00
2018-12-09T23:15:30.859Z,17.00
2018-12-09T23:18:00.159Z,17.00
2018-12-09T23:20:29.597Z,17.00
2018-12-09T23:22:59.584Z,17.10
2018-12-09T23:25:28.968Z,17.00
2018-12-09T23:27:58.385Z,17.00
2018-12-09T23:30:27.836Z,17.10
2018-12-09T23:32:57.200Z,17.10
2018-12-09T23:35:26.468Z,17.10
2018-12-09T23:37:55.739Z,17.10
2018-12-09T23:40:25.007Z,17.10
2018-12-09T23:42:54.288Z,17.10
2018-12-09T23:45:23.659Z,17.10
2018-12-09T23:47:52.963Z,17.00
2018-12-09T23:50:22.320Z,17.00
2018-12-09T23:52:51.627Z,17.00
2018-12-09T23:55:20.937Z,17.00
2018-12-09T23:57:50.251Z,17.00
